Time;durP1;ratioP1;P1;durP2;ratioP2;P2;SDS_P1;SDS_P2;PMS_P1;PMS_P2;Temp;Humidity;BMP_temperature;BMP_pressure;BME280_temperature;BME280_humidity;BME280_pressure;Samples;Min_cycle;Max_cycle;Signal;HPM_P1;HPM_P2
2023/05/20 00:01:11;;;;;;;2.70;1.25;;;;;;;;;;10443219;28;22253;-78
2023/05/20 00:06:12;;;;;;;1.27;1.17;;;;;;;;;;10472006;28;20221;-78
2023/05/20 00:11:13;;;;;;;1.10;1.10;;;;;;;;;;10454256;28;20300;-78
2023/05/20 00:16:15;;;;;;;3.20;1.25;;;;;;;;;;10457348;28;20214;-78
2023/05/20 00:21:16;;;;;;;1.00;1.00;;;;;;;;;;10459553;28;20267;-78
2023/05/20 00:26:17;;;;;;;1.65;1.55;;;;;;;;;;10462572;28;20249;-79
2023/05/20 00:31:22;;;;;;;1.60;1.48;;;;;;;;;;10470218;28;20229;-79
2023/05/20 00:36:24;;;;;;;1.60;1.60;;;;;;;;;;10449373;28;20721;-78
2023/05/20 00:41:25;;;;;;;1.60;1.50;;;;;;;;;;10473482;28;20278;-78
2023/05/20 00:46:28;;;;;;;1.77;1.77;;;;;;;;;;10433156;28;20222;-79
2023/05/20 00:51:29;;;;;;;2.55;1.30;;;;;;;;;;10457118;28;20229;-78
2023/05/20 00:56:31;;;;;;;1.80;1.80;;;;;;;;;;10454054;28;20218;-78
2023/05/20 01:01:32;;;;;;;1.45;1.42;;;;;;;;;;10452370;28;20428;-78
2023/05/20 01:06:33;;;;;;;1.42;1.20;;;;;;;;;;10466456;28;20227;-78
2023/05/20 01:11:37;;;;;;;1.60;1.60;;;;;;;;;;10451381;28;20213;-79
2023/05/20 01:16:38;;;;;;;1.60;1.50;;;;;;;;;;10454693;28;20217;-78
2023/05/20 01:21:40;;;;;;;1.60;1.60;;;;;;;;;;10475676;28;21505;-78
2023/05/20 01:26:41;;;;;;;1.60;1.60;;;;;;;;;;10448665;28;20320;-78
2023/05/20 01:31:43;;;;;;;2.05;1.83;;;;;;;;;;10452742;28;20229;-79
2023/05/20 01:36:46;;;;;;;1.23;1.23;;;;;;;;;;10455526;28;20504;-78
2023/05/20 01:41:47;;;;;;;3.17;1.52;;;;;;;;;;10454641;28;20223;-79
2023/05/20 01:46:49;;;;;;;1.40;1.30;;;;;;;;;;10472576;28;20358;-78
2023/05/20 01:51:50;;;;;;;3.50;1.55;;;;;;;;;;10458069;28;20707;-78
2023/05/20 01:56:51;;;;;;;2.58;1.77;;;;;;;;;;10451644;28;20459;-77
2023/05/20 02:01:52;;;;;;;1.60;1.50;;;;;;;;;;10435713;28;20294;-78
2023/05/20 02:06:53;;;;;;;3.10;1.67;;;;;;;;;;10477318;28;20267;-78
2023/05/20 02:11:57;;;;;;;1.52;1.45;;;;;;;;;;10479333;28;20244;-78
2023/05/20 02:16:58;;;;;;;1.67;1.52;;;;;;;;;;10459919;28;20241;-77
2023/05/20 02:22:01;;;;;;;1.48;1.42;;;;;;;;;;10474262;28;20220;-79
2023/05/20 02:27:03;;;;;;;1.85;1.75;;;;;;;;;;10447229;28;20320;-79
2023/05/20 02:32:04;;;;;;;1.50;1.50;;;;;;;;;;10447476;28;20348;-78
2023/05/20 02:37:05;;;;;;;2.53;1.38;;;;;;;;;;10460363;28;20220;-77
2023/05/20 02:42:06;;;;;;;1.50;1.50;;;;;;;;;;10453716;28;20213;-78
2023/05/20 02:47:07;;;;;;;1.75;1.65;;;;;;;;;;10429484;28;20259;-77
2023/05/20 02:52:09;;;;;;;1.60;1.60;;;;;;;;;;10444447;28;20581;-78
2023/05/20 02:57:10;;;;;;;1.38;1.38;;;;;;;;;;10464903;28;20271;-79
2023/05/20 03:02:11;;;;;;;1.50;1.50;;;;;;;;;;10439329;28;20297;-76
2023/05/20 03:07:13;;;;;;;1.70;1.67;;;;;;;;;;10437510;28;20214;-78
2023/05/20 03:12:14;;;;;;;2.30;2.20;;;;;;;;;;10446970;28;20313;-78
2023/05/20 03:17:15;;;;;;;2.70;2.08;;;;;;;;;;10445617;28;20225;-77
2023/05/20 03:22:17;;;;;;;2.20;2.10;;;;;;;;;;10450465;28;20590;-77
2023/05/20 03:27:18;;;;;;;1.80;1.75;;;;;;;;;;10405472;28;20226;-77
2023/05/20 03:32:20;;;;;;;2.10;2.00;;;;;;;;;;10445905;28;20214;-78
2023/05/20 03:37:21;;;;;;;2.22;2.13;;;;;;;;;;10430016;28;20219;-77
2023/05/20 03:42:22;;;;;;;9.73;2.45;;;;;;;;;;10430837;28;20623;-77
2023/05/20 03:47:23;;;;;;;3.17;2.13;;;;;;;;;;10409096;28;20325;-79
2023/05/20 03:52:24;;;;;;;2.47;2.38;;;;;;;;;;10449647;28;20712;-79
2023/05/20 03:57:25;;;;;;;2.40;2.30;;;;;;;;;;10420512;28;20222;-78
2023/05/20 04:02:26;;;;;;;2.05;1.95;;;;;;;;;;10442462;28;20218;-79
2023/05/20 04:07:28;;;;;;;2.20;1.98;;;;;;;;;;10451081;28;20225;-78
2023/05/20 04:12:31;;;;;;;2.63;2.42;;;;;;;;;;10426409;28;20257;-79
2023/05/20 04:17:33;;;;;;;2.75;2.55;;;;;;;;;;10446870;28;20937;-78
2023/05/20 04:22:34;;;;;;;3.25;3.00;;;;;;;;;;10451958;28;20301;-79
2023/05/20 04:27:38;;;;;;;2.78;2.67;;;;;;;;;;10426735;28;20915;-79
2023/05/20 04:32:40;;;;;;;3.47;2.58;;;;;;;;;;10444219;28;20492;-79
2023/05/20 04:37:43;;;;;;;4.95;3.30;;;;;;;;;;10449657;28;20870;-77
2023/05/20 04:42:45;;;;;;;3.92;3.20;;;;;;;;;;10443670;28;20234;-78
2023/05/20 04:47:46;;;;;;;3.28;3.08;;;;;;;;;;10436189;28;20226;-78
2023/05/20 04:52:49;;;;;;;2.70;2.50;;;;;;;;;;10439849;28;20226;-78
2023/05/20 04:57:50;;;;;;;6.10;2.92;;;;;;;;;;10429533;28;20248;-79
2023/05/20 05:02:51;;;;;;;3.42;2.95;;;;;;;;;;10453132;28;20219;-77
2023/05/20 05:07:53;;;;;;;3.75;3.03;;;;;;;;;;10439281;28;20218;-78
2023/05/20 05:12:54;;;;;;;4.15;3.03;;;;;;;;;;10436223;28;20240;-79
2023/05/20 05:17:56;;;;;;;3.03;2.72;;;;;;;;;;10433672;28;20218;-79
2023/05/20 05:22:58;;;;;;;3.10;2.95;;;;;;;;;;10437145;28;20594;-79
2023/05/20 05:27:59;;;;;;;2.97;2.75;;;;;;;;;;10448686;28;20275;-80
2023/05/20 05:33:00;;;;;;;3.20;3.00;;;;;;;;;;10416990;28;21026;-80
2023/05/20 05:38:01;;;;;;;3.17;2.92;;;;;;;;;;10439275;28;20206;-79
2023/05/20 05:43:03;;;;;;;3.05;2.80;;;;;;;;;;10421613;28;20221;-79
2023/05/20 05:48:05;;;;;;;5.57;2.95;;;;;;;;;;10418746;28;20241;-77
2023/05/20 05:53:06;;;;;;;3.38;3.00;;;;;;;;;;10424362;28;20287;-78
2023/05/20 05:58:09;;;;;;;3.50;2.67;;;;;;;;;;10428266;28;20584;-79
2023/05/20 06:03:11;;;;;;;7.68;3.30;;;;;;;;;;10445948;28;20206;-78
2023/05/20 06:08:12;;;;;;;3.95;3.65;;;;;;;;;;10442825;28;20230;-80
2023/05/20 06:13:13;;;;;;;3.70;3.22;;;;;;;;;;10421974;28;20214;-79
2023/05/20 06:18:15;;;;;;;3.92;3.45;;;;;;;;;;10439204;28;20222;-78
2023/05/20 06:23:18;;;;;;;4.00;3.70;;;;;;;;;;10441859;28;20243;-76
2023/05/20 06:28:27;;;;;;;3.58;3.28;;;;;;;;;;10432245;28;20722;-77
2023/05/20 06:33:28;;;;;;;3.83;3.53;;;;;;;;;;10432521;28;20882;-79
2023/05/20 06:38:33;;;;;;;4.05;3.55;;;;;;;;;;10420504;28;20287;-79
2023/05/20 06:43:35;;;;;;;3.65;3.45;;;;;;;;;;10414530;28;20217;-80
2023/05/20 06:48:43;;;;;;;3.80;3.60;;;;;;;;;;10443239;28;20702;-79
2023/05/20 06:53:45;;;;;;;4.70;3.97;;;;;;;;;;10440517;28;20218;-79
2023/05/20 06:58:46;;;;;;;6.50;4.20;;;;;;;;;;10442295;28;20610;-79
2023/05/20 07:03:48;;;;;;;5.95;3.65;;;;;;;;;;10412844;28;20264;-77
2023/05/20 07:08:50;;;;;;;3.53;3.13;;;;;;;;;;10455855;28;20230;-79
2023/05/20 07:13:52;;;;;;;3.63;3.33;;;;;;;;;;10423732;28;20233;-78
2023/05/20 07:18:53;;;;;;;2.88;2.67;;;;;;;;;;10456683;28;20222;-78
2023/05/20 07:23:55;;;;;;;3.50;3.20;;;;;;;;;;10431992;28;20225;-79
2023/05/20 07:28:56;;;;;;;3.30;3.00;;;;;;;;;;10441806;28;20618;-77
2023/05/20 07:33:57;;;;;;;3.65;3.33;;;;;;;;;;10429173;28;20843;-77
2023/05/20 07:38:58;;;;;;;9.05;3.15;;;;;;;;;;10446961;28;20252;-79
2023/05/20 07:44:02;;;;;;;5.15;3.10;;;;;;;;;;10464434;28;20233;-78
2023/05/20 07:49:03;;;;;;;5.75;2.58;;;;;;;;;;10463063;28;20757;-77
2023/05/20 07:54:05;;;;;;;2.97;2.60;;;;;;;;;;10444807;28;20305;-78
2023/05/20 07:59:06;;;;;;;2.83;2.53;;;;;;;;;;10426867;28;20836;-78
2023/05/20 08:04:13;;;;;;;3.08;2.83;;;;;;;;;;10444632;28;20294;-79
2023/05/20 08:09:16;;;;;;;3.92;3.05;;;;;;;;;;10452244;28;20274;-79
2023/05/20 08:14:22;;;;;;;4.18;3.67;;;;;;;;;;10444748;28;20219;-77
2023/05/20 08:19:27;;;;;;;3.67;3.40;;;;;;;;;;10438631;28;20221;-79
2023/05/20 08:24:28;;;;;;;3.92;3.63;;;;;;;;;;10437070;28;20330;-80
2023/05/20 08:30:18;;;;;;;4.80;3.72;;;;;;;;;;10442838;28;20233;-73
2023/05/20 08:34:51;;;;;;;4.47;4.00;;;;;;;;;;10428818;28;20865;-78
2023/05/20 08:39:52;;;;;;;9.63;4.75;;;;;;;;;;10438195;28;20226;-78
2023/05/20 08:44:54;;;;;;;4.57;4.20;;;;;;;;;;10418156;28;20220;-79
2023/05/20 08:49:55;;;;;;;6.65;3.83;;;;;;;;;;10425562;28;20217;-78
2023/05/20 08:54:56;;;;;;;5.93;4.20;;;;;;;;;;10458671;28;21597;-81
2023/05/20 08:59:58;;;;;;;4.35;4.00;;;;;;;;;;10449768;28;20267;-80
2023/05/20 09:04:59;;;;;;;5.20;4.13;;;;;;;;;;10435937;28;20254;-81
2023/05/20 09:10:00;;;;;;;4.07;3.53;;;;;;;;;;10450499;28;20278;-83
2023/05/20 09:15:01;;;;;;;4.22;3.42;;;;;;;;;;10451017;28;20225;-80
2023/05/20 09:20:09;;;;;;;4.07;3.78;;;;;;;;;;10426604;28;20217;-81
2023/05/20 09:25:12;;;;;;;5.57;4.53;;;;;;;;;;10464628;28;21253;-82
2023/05/20 09:30:13;;;;;;;5.43;3.90;;;;;;;;;;10452460;28;20684;-81
2023/05/20 09:35:15;;;;;;;4.72;3.92;;;;;;;;;;10454729;28;20242;-83
2023/05/20 09:40:20;;;;;;;5.28;4.18;;;;;;;;;;10442311;28;20263;-82
2023/05/20 09:45:21;;;;;;;4.32;4.00;;;;;;;;;;10439260;28;20209;-79
2023/05/20 09:50:24;;;;;;;7.50;4.20;;;;;;;;;;10463573;28;20249;-81
2023/05/20 09:55:25;;;;;;;4.85;4.45;;;;;;;;;;10461738;28;20206;-81
2023/05/20 10:00:26;;;;;;;6.85;4.28;;;;;;;;;;10453390;28;20540;-78
2023/05/20 10:05:29;;;;;;;6.05;4.03;;;;;;;;;;10438194;28;20315;-79
2023/05/20 10:10:33;;;;;;;3.88;3.58;;;;;;;;;;10434450;28;20226;-82
2023/05/20 10:15:53;;;;;;;6.40;4.72;;;;;;;;;;10459237;28;20217;-81
2023/05/20 10:20:54;;;;;;;6.10;3.88;;;;;;;;;;10441798;28;20617;-80
2023/05/20 10:25:56;;;;;;;7.88;4.72;;;;;;;;;;10453010;28;20226;-81
2023/05/20 10:30:57;;;;;;;5.50;4.43;;;;;;;;;;10444644;28;20225;-81
2023/05/20 10:35:59;;;;;;;6.95;4.95;;;;;;;;;;10458237;28;20214;-80
2023/05/20 10:41:10;;;;;;;4.63;4.22;;;;;;;;;;10473964;28;20214;-81
2023/05/20 10:46:17;;;;;;;12.10;4.80;;;;;;;;;;10452397;28;20225;-81
2023/05/20 10:51:20;;;;;;;19.75;5.68;;;;;;;;;;10458926;28;20259;-82
2023/05/20 10:56:24;;;;;;;12.45;5.05;;;;;;;;;;10439946;28;20221;-82
2023/05/20 11:01:26;;;;;;;5.00;4.40;;;;;;;;;;10462474;28;20308;-80
2023/05/20 11:06:27;;;;;;;7.03;4.57;;;;;;;;;;10491982;28;20233;-80
2023/05/20 11:11:28;;;;;;;5.78;5.03;;;;;;;;;;10491287;28;20213;-81
2023/05/20 11:16:30;;;;;;;6.25;5.40;;;;;;;;;;10504300;28;20259;-83
2023/05/20 11:21:31;;;;;;;4.53;4.22;;;;;;;;;;10503736;28;20206;-80
2023/05/20 11:26:32;;;;;;;7.18;4.40;;;;;;;;;;10504880;28;20223;-82
2023/05/20 11:31:33;;;;;;;4.70;4.30;;;;;;;;;;10493884;28;20215;-83
2023/05/20 11:36:34;;;;;;;8.73;5.20;;;;;;;;;;10482792;28;20322;-80
2023/05/20 11:41:35;;;;;;;8.15;4.32;;;;;;;;;;10462256;28;20350;-81
2023/05/20 11:46:40;;;;;;;4.00;3.75;;;;;;;;;;10464788;28;20222;-81
2023/05/20 11:51:42;;;;;;;4.75;4.35;;;;;;;;;;10467214;28;20213;-81
2023/05/20 11:56:44;;;;;;;3.97;3.78;;;;;;;;;;10469216;28;20222;-80
2023/05/20 12:01:45;;;;;;;4.13;3.83;;;;;;;;;;10465673;28;20241;-80
2023/05/20 12:06:46;;;;;;;4.40;4.00;;;;;;;;;;10444242;28;20226;-80
2023/05/20 12:11:47;;;;;;;4.53;4.25;;;;;;;;;;10450370;28;20512;-77
2023/05/20 12:16:48;;;;;;;4.47;3.85;;;;;;;;;;10461921;28;20434;-80
2023/05/20 12:21:51;;;;;;;5.90;4.25;;;;;;;;;;10451382;28;20248;-77
2023/05/20 12:26:52;;;;;;;4.60;3.97;;;;;;;;;;10430173;28;20245;-80
2023/05/20 12:31:53;;;;;;;4.10;3.75;;;;;;;;;;10457817;28;20659;-82
2023/05/20 12:36:54;;;;;;;3.65;3.45;;;;;;;;;;10459478;28;20860;-82
2023/05/20 12:41:55;;;;;;;4.53;4.07;;;;;;;;;;10442997;28;20233;-79
2023/05/20 12:46:56;;;;;;;3.80;3.60;;;;;;;;;;10444469;28;20718;-80
2023/05/20 12:51:57;;;;;;;4.22;3.97;;;;;;;;;;10450778;28;20221;-80
2023/05/20 12:56:58;;;;;;;3.40;3.20;;;;;;;;;;10445084;28;20211;-80
2023/05/20 13:02:00;;;;;;;5.88;3.25;;;;;;;;;;10463474;28;20218;-81
2023/05/20 13:07:01;;;;;;;3.47;3.30;;;;;;;;;;10447961;28;20217;-81
2023/05/20 13:12:01;;;;;;;3.50;3.20;;;;;;;;;;10428343;28;20212;-81
2023/05/20 13:17:03;;;;;;;3.30;3.10;;;;;;;;;;10427272;28;20261;-80
2023/05/20 13:22:07;;;;;;;3.22;2.97;;;;;;;;;;10443754;28;20238;-81
2023/05/20 13:27:09;;;;;;;3.03;2.92;;;;;;;;;;10439859;28;20217;-80
2023/05/20 13:32:10;;;;;;;2.83;2.72;;;;;;;;;;10441385;28;20679;-81
2023/05/20 13:37:11;;;;;;;3.10;2.90;;;;;;;;;;10445691;28;20275;-80
2023/05/20 13:42:12;;;;;;;3.00;2.88;;;;;;;;;;10459270;28;20253;-81
2023/05/20 13:47:13;;;;;;;3.40;3.20;;;;;;;;;;10422543;28;20307;-81
2023/05/20 13:52:14;;;;;;;3.72;2.88;;;;;;;;;;10425727;28;20217;-80
2023/05/20 13:57:15;;;;;;;2.83;2.60;;;;;;;;;;10437660;28;20225;-80
2023/05/20 14:02:16;;;;;;;3.60;2.88;;;;;;;;;;10457256;28;20210;-81
2023/05/20 14:07:17;;;;;;;3.35;3.17;;;;;;;;;;10437169;28;20244;-80
2023/05/20 14:12:18;;;;;;;2.80;2.70;;;;;;;;;;10422692;28;20221;-81
2023/05/20 14:17:20;;;;;;;2.60;2.50;;;;;;;;;;10456137;28;20218;-80
2023/05/20 14:22:21;;;;;;;3.20;3.08;;;;;;;;;;10458101;28;20209;-80
2023/05/20 14:27:21;;;;;;;3.53;3.20;;;;;;;;;;10453944;28;20206;-80
2023/05/20 14:32:22;;;;;;;3.35;3.15;;;;;;;;;;10457058;28;20218;-81
2023/05/20 14:37:25;;;;;;;3.78;3.33;;;;;;;;;;10428403;28;20695;-81
2023/05/20 14:42:26;;;;;;;4.55;2.90;;;;;;;;;;10460207;28;20234;-82
2023/05/20 14:47:27;;;;;;;3.30;3.20;;;;;;;;;;10443662;28;20260;-81
2023/05/20 14:52:28;;;;;;;3.45;3.25;;;;;;;;;;10429355;28;20225;-81
2023/05/20 14:57:29;;;;;;;3.80;3.50;;;;;;;;;;10455754;28;20656;-81
2023/05/20 15:02:30;;;;;;;3.60;3.40;;;;;;;;;;10443956;28;20276;-83
2023/05/20 15:07:31;;;;;;;3.60;3.35;;;;;;;;;;10452399;28;20228;-81
2023/05/20 15:12:32;;;;;;;3.13;3.03;;;;;;;;;;10453323;28;20292;-81
2023/05/20 15:17:32;;;;;;;3.58;3.47;;;;;;;;;;10446043;28;20349;-82
2023/05/20 15:22:34;;;;;;;3.38;3.28;;;;;;;;;;10440577;28;20715;-80
2023/05/20 15:27:35;;;;;;;4.03;3.75;;;;;;;;;;10457017;28;20226;-82
2023/05/20 15:32:36;;;;;;;3.22;3.13;;;;;;;;;;10432953;28;20712;-79
2023/05/20 15:37:36;;;;;;;4.32;3.92;;;;;;;;;;10448872;28;20708;-80
2023/05/20 15:42:56;;;;;;;3.47;3.30;;;;;;;;;;10452623;28;20213;-76
2023/05/20 15:48:06;;;;;;;3.63;3.42;;;;;;;;;;10423188;28;20308;-76
2023/05/20 15:53:13;;;;;;;3.10;2.90;;;;;;;;;;10444105;28;20214;-80
2023/05/20 15:58:15;;;;;;;5.53;4.28;;;;;;;;;;10447912;28;20275;-79
2023/05/20 16:03:16;;;;;;;4.03;3.50;;;;;;;;;;10459571;28;20692;-80
2023/05/20 16:08:19;;;;;;;3.80;3.45;;;;;;;;;;10463739;28;20222;-81
2023/05/20 16:13:20;;;;;;;3.88;3.65;;;;;;;;;;10442624;28;20218;-81
2023/05/20 16:18:22;;;;;;;3.70;3.53;;;;;;;;;;10432675;28;20219;-80
2023/05/20 16:23:23;;;;;;;3.85;3.55;;;;;;;;;;10431778;28;20218;-81
2023/05/20 16:28:24;;;;;;;3.75;3.47;;;;;;;;;;10457644;28;20556;-80
2023/05/20 16:33:25;;;;;;;4.05;3.78;;;;;;;;;;10441842;28;20217;-79
2023/05/20 16:38:26;;;;;;;4.18;3.78;;;;;;;;;;10447297;28;20222;-81
2023/05/20 16:43:27;;;;;;;3.67;3.47;;;;;;;;;;10437411;28;20214;-80
2023/05/20 16:48:38;;;;;;;3.60;3.40;;;;;;;;;;10429310;28;21001;-77
2023/05/20 16:53:39;;;;;;;5.43;3.92;;;;;;;;;;10461808;28;20298;-79
2023/05/20 16:58:40;;;;;;;4.57;4.18;;;;;;;;;;10456059;28;20252;-81
2023/05/20 17:03:41;;;;;;;4.97;4.47;;;;;;;;;;10455973;28;20228;-78
2023/05/20 17:08:42;;;;;;;4.70;4.40;;;;;;;;;;10462146;28;20227;-80
2023/05/20 17:13:43;;;;;;;5.30;3.97;;;;;;;;;;10443070;28;20229;-82
2023/05/20 17:18:44;;;;;;;4.75;3.92;;;;;;;;;;10447183;28;20256;-81
2023/05/20 17:23:46;;;;;;;5.47;3.80;;;;;;;;;;10444878;28;20324;-81
2023/05/20 17:28:47;;;;;;;4.22;3.65;;;;;;;;;;10448632;28;20250;-80
2023/05/20 17:33:57;;;;;;;5.47;4.15;;;;;;;;;;10460732;28;20336;-79
2023/05/20 17:38:58;;;;;;;4.30;4.10;;;;;;;;;;10421257;28;20409;-76
2023/05/20 17:44:00;;;;;;;4.40;4.10;;;;;;;;;;10419581;28;20578;-75
2023/05/20 17:49:04;;;;;;;5.03;4.10;;;;;;;;;;10424738;28;20218;-79
2023/05/20 17:54:15;;;;;;;6.55;4.60;;;;;;;;;;10424881;28;20590;-79
2023/05/20 17:59:16;;;;;;;5.20;4.10;;;;;;;;;;10443443;28;20218;-77
2023/05/20 18:04:20;;;;;;;3.92;3.63;;;;;;;;;;10449295;28;20225;-79
2023/05/20 18:09:21;;;;;;;4.63;4.22;;;;;;;;;;10442621;28;20225;-77
2023/05/20 18:14:22;;;;;;;4.07;3.88;;;;;;;;;;10444649;28;20683;-80
2023/05/20 18:19:23;;;;;;;3.90;3.70;;;;;;;;;;10438716;28;20310;-76
2023/05/20 18:24:24;;;;;;;4.45;4.15;;;;;;;;;;10414076;28;20225;-76
2023/05/20 18:29:25;;;;;;;3.58;3.35;;;;;;;;;;10432978;28;20801;-76
2023/05/20 18:34:27;;;;;;;3.92;3.63;;;;;;;;;;10448259;28;20688;-77
2023/05/20 18:39:28;;;;;;;4.72;4.43;;;;;;;;;;10448869;28;20613;-76
2023/05/20 18:44:29;;;;;;;4.13;3.78;;;;;;;;;;10443528;28;20211;-77
2023/05/20 18:49:30;;;;;;;4.38;3.72;;;;;;;;;;10444837;28;20433;-77
2023/05/20 18:54:31;;;;;;;4.28;3.97;;;;;;;;;;10430204;28;20626;-77
2023/05/20 18:59:32;;;;;;;4.18;3.97;;;;;;;;;;10424835;28;20217;-77
2023/05/20 19:04:33;;;;;;;4.45;3.95;;;;;;;;;;10446625;28;20217;-76
2023/05/20 19:09:34;;;;;;;5.03;3.72;;;;;;;;;;10439258;28;20313;-76
2023/05/20 19:14:35;;;;;;;4.65;4.05;;;;;;;;;;10443853;28;20599;-76
2023/05/20 19:19:36;;;;;;;4.65;4.30;;;;;;;;;;10428788;28;20221;-77
2023/05/20 19:24:37;;;;;;;3.45;3.28;;;;;;;;;;10420542;28;20229;-76
2023/05/20 19:29:38;;;;;;;4.15;3.95;;;;;;;;;;10455375;28;20293;-76
2023/05/20 19:34:39;;;;;;;4.28;3.97;;;;;;;;;;10423517;28;20785;-75
2023/05/20 19:39:40;;;;;;;4.85;4.40;;;;;;;;;;10454340;28;20244;-76
2023/05/20 19:44:41;;;;;;;4.97;3.75;;;;;;;;;;10429705;28;20218;-75
2023/05/20 19:49:42;;;;;;;4.00;3.78;;;;;;;;;;10441249;28;20218;-75
2023/05/20 19:54:43;;;;;;;5.82;5.40;;;;;;;;;;10440145;28;20237;-75
2023/05/20 19:59:45;;;;;;;8.50;6.53;;;;;;;;;;10429812;28;20300;-75
2023/05/20 20:04:46;;;;;;;6.70;6.20;;;;;;;;;;10439644;28;20841;-76
2023/05/20 20:09:50;;;;;;;5.32;4.82;;;;;;;;;;10444410;28;20703;-75
2023/05/20 20:14:51;;;;;;;6.00;5.35;;;;;;;;;;10436152;28;20221;-76
2023/05/20 20:19:52;;;;;;;6.43;5.88;;;;;;;;;;10446546;28;20614;-76
2023/05/20 20:24:53;;;;;;;6.20;5.63;;;;;;;;;;10442669;28;20214;-75
2023/05/20 20:29:54;;;;;;;8.13;5.20;;;;;;;;;;10453027;28;20229;-76
2023/05/20 20:34:56;;;;;;;5.40;5.00;;;;;;;;;;10438949;28;20222;-77
2023/05/20 20:39:57;;;;;;;5.07;4.78;;;;;;;;;;10455994;28;20225;-73
2023/05/20 20:44:58;;;;;;;5.22;4.85;;;;;;;;;;10441868;28;20222;-73
2023/05/20 20:50:02;;;;;;;10.45;7.45;;;;;;;;;;10436221;28;20724;-76
2023/05/20 20:55:03;;;;;;;10.93;7.07;;;;;;;;;;10437736;28;20912;-76
2023/05/20 21:00:22;;;;;;;10.88;7.47;;;;;;;;;;10431322;28;20228;-78
2023/05/20 21:05:26;;;;;;;7.60;6.93;;;;;;;;;;10433486;28;20315;-75
2023/05/20 21:10:28;;;;;;;7.13;6.47;;;;;;;;;;10455606;28;20666;-76
2023/05/20 21:15:29;;;;;;;6.65;6.10;;;;;;;;;;10452278;28;20248;-76
2023/05/20 21:20:30;;;;;;;7.43;6.72;;;;;;;;;;10434884;28;20222;-77
2023/05/20 21:25:31;;;;;;;7.07;6.38;;;;;;;;;;10451383;28;20784;-75
2023/05/20 21:30:32;;;;;;;6.75;6.05;;;;;;;;;;10453315;28;20274;-76
2023/05/20 21:35:33;;;;;;;7.65;5.40;;;;;;;;;;10436057;28;20703;-76
2023/05/20 21:40:34;;;;;;;5.55;5.05;;;;;;;;;;10434827;28;20316;-78
2023/05/20 21:45:35;;;;;;;5.57;5.03;;;;;;;;;;10439165;28;20226;-75
2023/05/20 21:50:37;;;;;;;5.55;5.07;;;;;;;;;;10436527;28;20225;-76
2023/05/20 21:55:38;;;;;;;5.53;5.00;;;;;;;;;;10434303;28;20218;-74
2023/05/20 22:00:39;;;;;;;4.97;4.60;;;;;;;;;;10438991;28;20222;-74
2023/05/20 22:05:44;;;;;;;5.47;5.07;;;;;;;;;;10457009;28;20226;-74
2023/05/20 22:10:45;;;;;;;5.10;4.70;;;;;;;;;;10431110;28;20226;-76
2023/05/20 22:15:46;;;;;;;4.85;4.53;;;;;;;;;;10436293;28;20336;-76
2023/05/20 22:20:48;;;;;;;5.18;4.80;;;;;;;;;;10437576;28;20282;-73
2023/05/20 22:25:52;;;;;;;5.10;4.65;;;;;;;;;;10435037;28;20231;-75
2023/05/20 22:30:53;;;;;;;5.40;4.95;;;;;;;;;;10455099;28;20746;-75
2023/05/20 22:35:55;;;;;;;4.60;4.38;;;;;;;;;;10417166;28;20210;-75
2023/05/20 22:40:56;;;;;;;4.43;4.22;;;;;;;;;;10455398;28;20309;-78
2023/05/20 22:45:57;;;;;;;4.78;4.47;;;;;;;;;;10450431;28;20215;-77
2023/05/20 22:51:02;;;;;;;5.78;4.85;;;;;;;;;;10453030;28;20265;-75
2023/05/20 22:56:04;;;;;;;4.85;4.32;;;;;;;;;;10452535;28;20217;-76
2023/05/20 23:01:06;;;;;;;5.60;5.13;;;;;;;;;;10434574;28;20309;-75
2023/05/20 23:06:07;;;;;;;4.80;4.50;;;;;;;;;;10445897;28;20664;-76
2023/05/20 23:11:08;;;;;;;4.75;4.40;;;;;;;;;;10456771;28;20217;-77
2023/05/20 23:16:09;;;;;;;5.13;4.55;;;;;;;;;;10445466;28;20245;-75
2023/05/20 23:21:10;;;;;;;6.28;4.30;;;;;;;;;;10457779;28;20275;-76
2023/05/20 23:26:11;;;;;;;8.45;4.32;;;;;;;;;;10427119;28;20214;-76
2023/05/20 23:31:13;;;;;;;4.72;4.32;;;;;;;;;;10436671;28;20593;-76
2023/05/20 23:36:15;;;;;;;5.95;5.07;;;;;;;;;;10457947;28;20228;-76
2023/05/20 23:41:17;;;;;;;5.63;5.00;;;;;;;;;;10427229;28;20218;-75
2023/05/20 23:46:18;;;;;;;7.50;5.03;;;;;;;;;;10451493;28;20221;-75
2023/05/20 23:51:19;;;;;;;5.80;4.78;;;;;;;;;;10420757;28;20210;-76
2023/05/20 23:56:20;;;;;;;6.38;5.00;;;;;;;;;;10436361;28;20270;-74
